Time;durP1;ratioP1;P1;durP2;ratioP2;P2;SDS_P1;SDS_P2;PMS_P1;PMS_P2;Temp;Humidity;BMP_temperature;BMP_pressure;BME280_temperature;BME280_humidity;BME280_pressure;Samples;Min_cycle;Max_cycle;Signal;HPM_P1;HPM_P2
2021/11/25 00:12:20;;;;;;;33.97;20.33;;;;;;;7.80;100.00;100490.50;713985;1177;114216;-78
2021/11/25 00:27:23;;;;;;;25.45;15.63;;;;;;;7.75;100.00;100487.39;714063;1199;115086;-78
2021/11/25 00:42:25;;;;;;;28.97;17.57;;;;;;;7.71;100.00;100478.11;714050;1200;114934;-77
2021/11/25 00:57:28;;;;;;;32.10;18.10;;;;;;;7.68;100.00;100467.91;713744;1177;115602;-77
2021/11/25 01:12:31;;;;;;;43.20;23.75;;;;;;;7.54;100.00;100447.19;713859;1199;115274;-76
2021/11/25 01:27:34;;;;;;;41.43;21.70;;;;;;;7.55;100.00;100427.94;713836;1179;115029;-76
2021/11/25 01:42:37;;;;;;;48.95;23.58;;;;;;;7.43;100.00;100409.64;714288;1177;114106;-77
2021/11/25 01:57:40;;;;;;;47.63;23.48;;;;;;;7.35;100.00;100396.32;713830;1189;114532;-78
2021/11/25 02:12:43;;;;;;;56.40;26.13;;;;;;;7.26;100.00;100378.72;713842;1202;114983;-78
2021/11/25 02:27:45;;;;;;;52.63;26.53;;;;;;;7.18;100.00;100357.55;713657;1177;114515;-76
2021/11/25 02:42:57;;;;;;;46.95;24.18;;;;;;;7.15;100.00;100358.60;713520;1174;114163;-75
2021/11/25 02:57:59;;;;;;;43.20;21.80;;;;;;;7.05;100.00;100340.19;713715;1196;114198;-76
2021/11/25 03:13:03;;;;;;;47.13;22.35;;;;;;;7.06;100.00;100312.31;713656;1178;114402;-76
2021/11/25 03:28:06;;;;;;;41.85;21.85;;;;;;;7.08;100.00;100310.44;713791;1175;113994;-76
2021/11/25 03:43:08;;;;;;;45.28;22.45;;;;;;;6.98;100.00;100292.00;713670;1177;114211;-78
2021/11/25 03:58:10;;;;;;;42.95;22.15;;;;;;;6.95;100.00;100276.58;713852;1176;114050;-76
2021/11/25 04:13:13;;;;;;;39.20;18.13;;;;;;;6.92;100.00;100266.39;713812;1205;115113;-75
2021/11/25 04:28:15;;;;;;;35.75;18.10;;;;;;;6.86;100.00;100241.56;713703;1177;115226;-75
2021/11/25 04:43:19;;;;;;;46.65;22.05;;;;;;;6.88;100.00;100233.66;713639;1178;114141;-76
2021/11/25 04:58:21;;;;;;;32.85;17.25;;;;;;;6.85;100.00;100215.61;713508;1177;114188;-76
2021/11/25 05:13:24;;;;;;;39.85;18.28;;;;;;;6.86;100.00;100193.81;714048;1200;114018;-74
2021/11/25 05:28:27;;;;;;;32.95;16.75;;;;;;;6.82;100.00;100169.73;714975;1200;115664;-76
2021/11/25 05:43:30;;;;;;;28.40;16.00;;;;;;;6.86;100.00;100149.48;714747;1200;115664;-77
2021/11/25 05:58:32;;;;;;;26.17;13.83;;;;;;;6.78;100.00;100143.07;714740;1200;114826;-76
2021/11/25 06:13:34;;;;;;;22.37;11.83;;;;;;;6.77;100.00;100125.76;713935;1204;114399;-76
2021/11/25 06:28:37;;;;;;;22.20;12.15;;;;;;;6.69;100.00;100102.05;713927;1177;114010;-75
2021/11/25 06:43:39;;;;;;;24.83;12.75;;;;;;;6.73;100.00;100095.66;713993;1203;114797;-76
2021/11/25 06:58:42;;;;;;;29.17;14.40;;;;;;;6.68;100.00;100086.49;713671;1200;113970;-76
2021/11/25 07:13:44;;;;;;;18.87;11.10;;;;;;;6.64;100.00;100075.48;713772;1204;114242;-76
2021/11/25 07:28:48;;;;;;;30.48;16.85;;;;;;;6.53;100.00;100065.84;713832;1202;114697;-76
2021/11/25 07:43:50;;;;;;;36.07;18.83;;;;;;;6.53;100.00;100041.56;714059;1200;114003;-79
2021/11/25 07:58:52;;;;;;;31.60;16.73;;;;;;;6.50;100.00;100040.84;713893;1197;114034;-78
2021/11/25 08:13:55;;;;;;;43.43;23.50;;;;;;;7.14;100.00;99997.76;713988;1176;114204;-88
2021/11/25 08:28:57;;;;;;;34.90;17.83;;;;;;;6.83;100.00;99994.91;715359;1205;113874;-88
2021/11/25 08:44:00;;;;;;;35.70;18.60;;;;;;;6.71;100.00;99969.78;714538;1174;113710;-88
2021/11/25 08:59:02;;;;;;;38.47;20.90;;;;;;;6.83;100.00;99954.98;713953;1205;114520;-75
2021/11/25 09:14:05;;;;;;;40.60;22.40;;;;;;;7.63;99.19;99938.20;714048;1199;114302;-75
2021/11/25 09:29:09;;;;;;;43.63;22.80;;;;;;;8.37;97.28;99892.08;713860;1205;113614;-75
2021/11/25 09:44:12;;;;;;;40.50;22.55;;;;;;;8.36;94.30;99886.98;713877;1201;115530;-75
2021/11/25 09:59:15;;;;;;;51.15;28.53;;;;;;;8.38;90.88;99856.30;713903;1203;113616;-74
2021/11/25 10:14:17;;;;;;;37.60;21.28;;;;;;;7.63;90.36;99822.52;714050;1188;113755;-74
2021/11/25 10:29:22;;;;;;;38.30;20.90;;;;;;;7.50;88.93;99783.55;713833;1200;114441;-76
2021/11/25 10:44:26;;;;;;;35.73;19.00;;;;;;;7.74;88.44;99746.71;713938;1200;114636;-80
2021/11/25 10:59:41;;;;;;;28.83;16.67;;;;;;;8.38;87.84;99720.39;714082;1200;113602;-81
2021/11/25 11:14:55;;;;;;;27.50;15.30;;;;;;;8.07;84.25;99692.54;714133;1200;114519;-76
2021/11/25 11:29:57;;;;;;;24.90;13.38;;;;;;;8.51;84.41;99645.17;714042;1202;114354;-76
2021/11/25 11:45:01;;;;;;;24.40;13.80;;;;;;;9.59;81.71;99606.50;714464;1200;113690;-76
2021/11/25 12:00:20;;;;;;;26.45;15.05;;;;;;;9.98;80.18;99576.66;714626;1200;114874;-75
2021/11/25 12:15:23;;;;;;;46.33;29.20;;;;;;;7.95;79.69;99573.47;714420;1202;113893;-80
2021/11/25 12:30:40;;;;;;;25.23;14.57;;;;;;;7.42;79.75;99562.35;714021;1206;115954;-79
2021/11/25 12:45:44;;;;;;;33.53;17.80;;;;;;;7.87;80.43;99521.09;713969;1200;113896;-77
2021/11/25 13:00:50;;;;;;;46.33;22.53;;;;;;;11.73;73.34;99514.56;715073;1200;114470;-82
2021/11/25 13:16:14;;;;;;;33.98;18.00;;;;;;;10.79;66.20;99496.98;715325;1200;115230;-74
2021/11/25 13:31:24;;;;;;;37.40;21.50;;;;;;;7.60;68.78;99488.63;715351;1201;114630;-80
2021/11/25 13:46:47;;;;;;;44.93;23.10;;;;;;;6.50;71.54;99484.95;715169;1202;114793;-74
2021/11/25 14:01:50;;;;;;;50.73;26.17;;;;;;;5.55;75.23;99483.92;714880;1200;114433;-72
2021/11/25 14:16:53;;;;;;;49.28;25.28;;;;;;;5.10;78.03;99474.43;714818;1200;116350;-73
2021/11/25 14:31:56;;;;;;;50.90;24.58;;;;;;;4.94;78.78;99448.80;715132;1203;114617;-75
2021/11/25 14:47:10;;;;;;;56.33;29.97;;;;;;;4.78;80.73;99425.78;714970;1200;115021;-73
2021/11/25 15:02:13;;;;;;;57.75;26.55;;;;;;;5.00;80.58;99405.90;715918;1202;114275;-73
2021/11/25 15:17:20;;;;;;;60.95;27.83;;;;;;;5.07;83.11;99378.48;715921;1200;114583;-72
2021/11/25 15:32:24;;;;;;;71.25;33.40;;;;;;;4.96;84.49;99355.10;715083;1203;113673;-73
2021/11/25 15:47:29;;;;;;;73.68;38.23;;;;;;;5.02;84.24;99341.63;715104;1202;114696;-72
2021/11/25 16:02:32;;;;;;;80.43;38.30;;;;;;;4.99;83.56;99331.48;715890;1178;114057;-73
2021/11/25 16:17:34;;;;;;;67.10;34.40;;;;;;;5.06;83.32;99317.03;715914;1184;113939;-73
2021/11/25 16:32:38;;;;;;;80.90;37.43;;;;;;;5.07;83.30;99321.29;715508;1200;114462;-74
2021/11/25 17:03:03;;;;;;;78.25;33.55;;;;;;;4.90;84.10;99319.23;715272;1178;113663;-76
2021/11/25 17:18:06;;;;;;;59.33;30.88;;;;;;;4.83;84.34;99309.31;715379;1179;114246;-76
2021/11/25 17:33:11;;;;;;;59.43;28.77;;;;;;;4.66;85.39;99286.45;714999;1177;113808;-75
2021/11/25 17:48:15;;;;;;;96.75;44.45;;;;;;;4.61;86.54;99291.17;715184;1180;113929;-76
2021/11/25 18:03:19;;;;;;;60.07;29.27;;;;;;;4.49;85.56;99273.00;715224;1189;113797;-76
2021/11/25 18:18:22;;;;;;;46.63;24.60;;;;;;;4.56;84.18;99226.58;714887;1177;114601;-74
2021/11/25 18:33:25;;;;;;;51.35;25.65;;;;;;;4.58;85.49;99240.29;715228;1174;114047;-73
2021/11/25 18:48:37;;;;;;;101.75;71.83;;;;;;;4.42;84.22;99240.69;715413;1177;114526;-74
2021/11/25 19:03:39;;;;;;;48.18;24.40;;;;;;;4.33;84.89;99239.63;715057;1178;114188;-73
2021/11/25 19:18:44;;;;;;;48.20;23.98;;;;;;;4.27;85.57;99213.32;715323;1178;114239;-73
2021/11/25 19:33:46;;;;;;;43.83;21.65;;;;;;;4.31;86.29;99194.77;716010;1177;114116;-75
2021/11/25 19:48:49;;;;;;;55.00;24.63;;;;;;;4.31;86.27;99181.78;714830;1200;113703;-75
2021/11/25 20:03:53;;;;;;;54.13;24.73;;;;;;;4.38;85.31;99189.09;715811;1175;113367;-74
2021/11/25 20:18:55;;;;;;;56.83;25.25;;;;;;;4.23;87.96;99173.78;715324;1201;115450;-75
2021/11/25 20:33:58;;;;;;;45.23;23.00;;;;;;;4.22;88.19;99181.70;718484;1176;113806;-75
2021/11/25 20:49:01;;;;;;;51.97;23.73;;;;;;;4.17;86.72;99176.89;713938;1178;113952;-74
2021/11/25 21:04:05;;;;;;;46.83;23.80;;;;;;;4.19;87.42;99163.78;713743;1179;114009;-75
2021/11/25 21:19:07;;;;;;;60.23;26.77;;;;;;;4.24;87.97;99167.66;713860;1174;114680;-74
2021/11/25 21:34:10;;;;;;;55.17;24.37;;;;;;;4.19;88.35;99163.78;714280;1200;113824;-75
2021/11/25 21:49:13;;;;;;;55.35;25.08;;;;;;;4.09;88.25;99182.68;714176;1178;113810;-76
2021/11/25 22:04:16;;;;;;;64.55;29.68;;;;;;;4.09;89.84;99154.13;713902;1204;113573;-75
2021/11/25 22:19:21;;;;;;;61.23;28.40;;;;;;;4.03;90.67;99120.05;713779;1177;113760;-75
2021/11/25 22:34:24;;;;;;;62.50;30.03;;;;;;;4.08;91.18;99118.73;713758;1200;114215;-74
2021/11/25 22:49:26;;;;;;;62.57;27.97;;;;;;;4.08;90.95;99102.31;713812;1200;114793;-75
2021/11/25 23:04:29;;;;;;;56.93;25.30;;;;;;;4.15;90.96;99095.70;713831;1175;113767;-75
2021/11/25 23:19:31;;;;;;;61.35;28.28;;;;;;;4.18;91.12;99079.05;713732;1177;113863;-75
2021/11/25 23:34:34;;;;;;;54.00;26.15;;;;;;;4.21;91.61;99090.03;713760;1205;114142;-75
2021/11/25 23:49:37;;;;;;;47.95;22.78;;;;;;;4.14;92.56;99097.48;713654;1205;114824;-75
